createdAt,value
2022-11-04T00:01:54.723Z,100.00
2022-11-04T00:04:24.380Z,100.00
2022-11-04T00:06:54.478Z,100.00
2022-11-04T00:09:24.626Z,100.00
2022-11-04T00:12:10.301Z,100.00
2022-11-04T00:14:40.201Z,100.00
2022-11-04T00:17:19.949Z,100.00
2022-11-04T00:20:07.008Z,100.00
2022-11-04T00:22:55.021Z,100.00
2022-11-04T00:28:42.352Z,100.00
2022-11-04T00:31:28.406Z,100.00
2022-11-04T00:33:58.744Z,100.00
2022-11-04T00:36:27.737Z,100.00
2022-11-04T00:38:57.173Z,100.00
2022-11-04T00:41:28.341Z,100.00
2022-11-04T00:43:58.401Z,100.00
2022-11-04T00:46:26.989Z,100.00
2022-11-04T00:48:55.243Z,100.00
2022-11-04T00:51:23.418Z,100.00
2022-11-04T00:53:52.249Z,100.00
2022-11-04T00:56:21.769Z,100.00
2022-11-04T00:58:50.336Z,100.00
2022-11-04T01:01:20.091Z,100.00
2022-11-04T01:03:50.264Z,100.00
2022-11-04T01:06:18.984Z,100.00
2022-11-04T01:08:47.521Z,100.00
2022-11-04T01:11:16.408Z,100.00
2022-11-04T01:13:45.800Z,100.00
2022-11-04T01:16:14.290Z,100.00
2022-11-04T01:18:42.794Z,100.00
2022-11-04T01:21:13.107Z,100.00
2022-11-04T01:23:42.849Z,100.00
2022-11-04T01:26:13.564Z,100.00
2022-11-04T01:28:41.696Z,100.00
2022-11-04T01:31:14.505Z,100.00
2022-11-04T01:33:42.717Z,100.00
2022-11-04T01:36:11.818Z,100.00
2022-11-04T01:38:40.121Z,100.00
2022-11-04T01:41:09.721Z,100.00
2022-11-04T01:43:46.204Z,100.00
2022-11-04T01:46:23.857Z,100.00
2022-11-04T01:48:53.314Z,100.00
2022-11-04T01:51:22.569Z,100.00
2022-11-04T01:53:53.424Z,100.00
2022-11-04T01:56:21.734Z,100.00
2022-11-04T01:58:54.985Z,100.00
2022-11-04T02:01:24.933Z,100.00
2022-11-04T02:04:17.950Z,100.00
2022-11-04T02:06:47.707Z,100.00
2022-11-04T02:09:16.810Z,100.00
2022-11-04T02:12:02.760Z,100.00
2022-11-04T02:14:32.267Z,100.00
2022-11-04T02:17:11.533Z,100.00
2022-11-04T02:20:00.101Z,100.00
2022-11-04T02:22:48.166Z,100.00
2022-11-04T02:25:38.108Z,100.00
2022-11-04T02:28:28.035Z,100.00
2022-11-04T02:31:08.943Z,100.00
2022-11-04T02:33:43.009Z,100.00
2022-11-04T02:36:20.262Z,100.00
2022-11-04T02:38:54.998Z,100.00
2022-11-04T02:41:34.294Z,100.00
2022-11-04T02:44:13.897Z,100.00
2022-11-04T02:46:53.690Z,100.00
2022-11-04T02:49:27.208Z,100.00
2022-11-04T02:52:02.022Z,100.00
2022-11-04T02:54:35.787Z,100.00
2022-11-04T02:57:08.573Z,100.00
2022-11-04T02:59:40.411Z,100.00
2022-11-04T03:02:16.741Z,100.00
2022-11-04T03:04:48.303Z,100.00
2022-11-04T03:07:18.900Z,100.00
2022-11-04T03:09:52.241Z,100.00
2022-11-04T03:12:25.785Z,100.00
2022-11-04T03:15:00.097Z,100.00
2022-11-04T03:17:36.709Z,100.00
2022-11-04T03:20:10.337Z,100.00
2022-11-04T03:22:39.126Z,100.00
2022-11-04T03:25:10.171Z,100.00
2022-11-04T03:27:42.845Z,100.00
2022-11-04T03:30:13.698Z,100.00
2022-11-04T03:32:50.705Z,100.00
2022-11-04T03:35:19.721Z,100.00
2022-11-04T03:37:49.551Z,100.00
2022-11-04T03:40:19.382Z,100.00
2022-11-04T03:42:52.687Z,100.00
2022-11-04T03:45:20.997Z,100.00
2022-11-04T03:47:51.172Z,100.00
2022-11-04T03:50:24.940Z,100.00
2022-11-04T03:52:52.998Z,100.00
2022-11-04T03:55:21.674Z,100.00
2022-11-04T03:57:54.421Z,100.00
2022-11-04T04:00:24.037Z,100.00
2022-11-04T04:03:01.127Z,100.00
2022-11-04T04:05:31.909Z,100.00
2022-11-04T04:08:16.201Z,100.00
2022-11-04T04:10:54.019Z,100.00
2022-11-04T04:13:34.162Z,100.00
2022-11-04T04:16:08.555Z,100.00
2022-11-04T04:18:44.890Z,100.00
2022-11-04T04:21:20.355Z,100.00
2022-11-04T04:24:09.221Z,100.00
2022-11-04T04:26:59.141Z,100.00
2022-11-04T04:29:30.770Z,100.00
2022-11-04T04:32:00.717Z,100.00
2022-11-04T04:34:32.514Z,100.00
2022-11-04T04:37:03.714Z,100.00
2022-11-04T04:39:58.199Z,100.00
2022-11-04T04:42:44.012Z,100.00
2022-11-04T04:45:22.609Z,100.00
2022-11-04T04:47:50.947Z,100.00
2022-11-04T04:50:22.753Z,100.00
2022-11-04T04:52:52.516Z,100.00
2022-11-04T04:55:22.080Z,100.00
2022-11-04T04:57:50.243Z,100.00
2022-11-04T05:00:21.694Z,100.00
2022-11-04T05:02:52.319Z,100.00
2022-11-04T05:05:21.803Z,100.00
2022-11-04T05:07:49.859Z,100.00
2022-11-04T05:10:19.140Z,100.00
2022-11-04T05:13:04.837Z,100.00
2022-11-04T05:15:33.316Z,100.00
2022-11-04T05:18:03.435Z,100.00
2022-11-04T05:20:34.173Z,100.00
2022-11-04T05:23:02.384Z,100.00
2022-11-04T05:25:30.403Z,100.00
2022-11-04T05:28:01.571Z,100.00
2022-11-04T05:30:29.474Z,100.00
2022-11-04T05:33:00.090Z,100.00
2022-11-04T05:35:34.857Z,100.00
2022-11-04T05:38:03.230Z,100.00
2022-11-04T05:40:31.391Z,100.00
2022-11-04T05:43:00.468Z,100.00
2022-11-04T05:45:28.981Z,100.00
2022-11-04T05:48:01.407Z,100.00
2022-11-04T05:50:30.720Z,100.00
2022-11-04T05:53:00.768Z,100.00
2022-11-04T05:55:29.318Z,100.00
2022-11-04T05:57:59.212Z,100.00
2022-11-04T06:00:28.490Z,100.00
2022-11-04T06:02:57.463Z,100.00
2022-11-04T06:05:26.121Z,100.00
2022-11-04T06:07:54.369Z,100.00
2022-11-04T06:10:24.161Z,100.00
2022-11-04T06:12:52.262Z,100.00
2022-11-04T06:15:20.287Z,100.00
2022-11-04T06:17:48.361Z,100.00
2022-11-04T06:20:16.532Z,100.00
2022-11-04T06:22:44.529Z,100.00
2022-11-04T06:25:12.801Z,100.00
2022-11-04T06:27:42.992Z,100.00
2022-11-04T06:30:12.887Z,100.00
2022-11-04T06:32:40.990Z,100.00
2022-11-04T06:35:10.008Z,100.00
2022-11-04T06:37:38.965Z,100.00
2022-11-04T06:40:08.482Z,100.00
2022-11-04T06:42:36.524Z,100.00
2022-11-04T06:45:06.928Z,100.00
2022-11-04T06:47:35.209Z,100.00
2022-11-04T06:50:03.374Z,100.00
2022-11-04T06:52:31.447Z,100.00
2022-11-04T06:54:59.410Z,100.00
2022-11-04T06:57:27.461Z,100.00
2022-11-04T06:59:55.846Z,100.00
2022-11-04T07:02:25.388Z,100.00
2022-11-04T07:04:55.471Z,100.00
2022-11-04T07:07:23.436Z,100.00
2022-11-04T07:09:51.456Z,100.00
2022-11-04T07:12:19.430Z,100.00
2022-11-04T07:14:47.452Z,100.00
2022-11-04T07:17:15.562Z,100.00
2022-11-04T07:19:45.266Z,100.00
2022-11-04T07:22:13.251Z,100.00
2022-11-04T07:24:41.280Z,100.00
2022-11-04T07:27:09.580Z,100.00
2022-11-04T07:29:37.671Z,100.00
2022-11-04T07:32:08.076Z,100.00
2022-11-04T07:34:36.642Z,100.00
2022-11-04T07:37:06.155Z,100.00
2022-11-04T07:39:34.181Z,100.00
2022-11-04T07:42:02.259Z,100.00
2022-11-04T07:44:30.878Z,100.00
2022-11-04T07:46:59.005Z,100.00
2022-11-04T07:49:27.444Z,100.00
2022-11-04T07:51:55.528Z,100.00
2022-11-04T07:54:25.002Z,100.00
2022-11-04T07:56:53.258Z,100.00
2022-11-04T07:59:21.706Z,100.00
2022-11-04T08:01:49.993Z,100.00
2022-11-04T08:04:18.160Z,100.00
2022-11-04T08:06:46.298Z,100.00
2022-11-04T08:09:16.435Z,100.00
2022-11-04T08:11:46.273Z,100.00
2022-11-04T08:14:14.455Z,100.00
2022-11-04T08:16:42.597Z,100.00
2022-11-04T08:19:10.681Z,100.00
2022-11-04T08:21:38.856Z,100.00
2022-11-04T08:24:07.443Z,100.00
2022-11-04T08:26:35.781Z,100.00
2022-11-04T08:29:08.433Z,100.00
2022-11-04T08:31:38.040Z,100.00
2022-11-04T08:34:08.421Z,100.00
2022-11-04T08:36:38.337Z,100.00
2022-11-04T08:39:10.857Z,100.00
2022-11-04T08:41:41.149Z,100.00
2022-11-04T08:44:11.745Z,100.00
2022-11-04T08:46:40.609Z,100.00
2022-11-04T08:49:11.225Z,100.00
2022-11-04T08:51:43.882Z,100.00
2022-11-04T08:54:12.347Z,100.00
2022-11-04T08:56:41.214Z,100.00
2022-11-04T08:59:11.502Z,100.00
2022-11-04T09:01:39.884Z,100.00
2022-11-04T09:04:08.270Z,100.00
2022-11-04T09:06:38.872Z,100.00
2022-11-04T09:09:09.131Z,100.00
2022-11-04T09:11:40.472Z,100.00
2022-11-04T09:14:10.733Z,100.00
2022-11-04T09:16:40.245Z,100.00
2022-11-04T09:19:08.415Z,100.00
2022-11-04T09:21:36.841Z,100.00
2022-11-04T09:24:06.108Z,100.00
2022-11-04T09:26:34.412Z,100.00
2022-11-04T09:29:02.595Z,100.00
2022-11-04T09:31:32.294Z,100.00
2022-11-04T09:34:00.384Z,100.00
2022-11-04T09:36:29.144Z,100.00
2022-11-04T09:38:57.310Z,100.00
2022-11-04T09:41:47.249Z,100.00
2022-11-04T09:44:23.677Z,100.00
2022-11-04T09:46:58.950Z,100.00
2022-11-04T09:49:30.273Z,100.00
2022-11-04T09:52:00.628Z,100.00
2022-11-04T09:54:34.468Z,100.00
2022-11-04T09:57:04.495Z,100.00
2022-11-04T09:59:35.216Z,100.00
2022-11-04T10:02:29.024Z,100.00
2022-11-04T10:05:08.845Z,100.00
2022-11-04T10:07:52.357Z,100.00
2022-11-04T10:10:27.783Z,100.00
2022-11-04T10:13:13.106Z,100.00
2022-11-04T10:16:05.723Z,100.00
2022-11-04T10:18:55.159Z,100.00
2022-11-04T10:21:36.707Z,100.00
2022-11-04T10:24:16.992Z,100.00
2022-11-04T10:26:47.116Z,100.00
2022-11-04T10:29:17.984Z,100.00
2022-11-04T10:31:48.126Z,100.00
2022-11-04T10:34:29.599Z,100.00
2022-11-04T10:36:58.585Z,100.00
2022-11-04T10:39:31.774Z,100.00
2022-11-04T10:41:59.972Z,100.00
2022-11-04T10:44:31.404Z,100.00
2022-11-04T10:47:21.267Z,100.00
2022-11-04T10:50:28.832Z,100.00
2022-11-04T10:53:11.179Z,100.00
2022-11-04T10:55:46.142Z,100.00
2022-11-04T10:58:21.184Z,100.00
2022-11-04T11:00:49.501Z,100.00
2022-11-04T11:03:32.591Z,100.00
2022-11-04T11:06:15.762Z,100.00
2022-11-04T11:08:45.074Z,100.00
2022-11-04T11:11:15.317Z,100.00
2022-11-04T11:13:46.391Z,98.97
2022-11-04T11:16:19.410Z,100.00
2022-11-04T11:19:15.058Z,100.00
2022-11-04T11:21:49.953Z,99.17
2022-11-04T11:24:21.966Z,98.61
2022-11-04T11:26:54.380Z,100.00
2022-11-04T11:29:25.987Z,100.00
2022-11-04T11:31:55.909Z,96.34
2022-11-04T11:34:27.566Z,96.43
2022-11-04T11:36:58.742Z,98.33
2022-11-04T11:39:29.858Z,97.03
2022-11-04T11:42:00.786Z,100.00
2022-11-04T11:44:33.061Z,95.42
2022-11-04T11:47:03.545Z,99.47
2022-11-04T11:49:34.488Z,100.00
2022-11-04T11:52:25.920Z,98.32
2022-11-04T11:54:57.602Z,93.00
2022-11-04T11:57:35.894Z,100.00
2022-11-04T12:03:01.868Z,91.85
2022-11-04T12:11:36.694Z,90.43
2022-11-04T12:14:11.406Z,86.27
2022-11-04T12:16:49.266Z,77.61
2022-11-04T12:19:32.278Z,77.67
2022-11-04T12:22:06.389Z,80.14
2022-11-04T12:24:47.434Z,82.46
2022-11-04T12:27:20.804Z,79.80
2022-11-04T12:30:03.390Z,71.70
2022-11-04T12:32:42.810Z,77.00
2022-11-04T12:35:24.999Z,74.21
2022-11-04T12:38:09.090Z,73.63
2022-11-04T12:41:05.050Z,72.54
2022-11-04T12:43:42.905Z,77.94
2022-11-04T12:46:18.816Z,82.55
2022-11-04T12:49:07.023Z,71.98
2022-11-04T12:51:46.400Z,74.73
2022-11-04T12:54:36.618Z,74.77
2022-11-04T12:57:14.520Z,70.61
2022-11-04T13:00:03.135Z,74.46
2022-11-04T13:02:35.909Z,67.82
2022-11-04T13:05:09.874Z,68.79
2022-11-04T13:07:45.055Z,68.63
2022-11-04T13:10:23.749Z,67.62
2022-11-04T13:12:57.299Z,76.05
2022-11-04T13:15:29.632Z,72.16
2022-11-04T13:18:02.261Z,72.75
2022-11-04T13:20:35.705Z,72.63
2022-11-04T13:23:09.912Z,74.86
2022-11-04T13:25:42.698Z,78.83
2022-11-04T13:28:14.791Z,76.09
2022-11-04T13:30:50.315Z,70.29
2022-11-04T13:33:28.267Z,73.76
2022-11-04T13:36:03.168Z,71.94
2022-11-04T13:38:37.419Z,73.26
2022-11-04T13:41:28.932Z,69.82
2022-11-04T13:44:00.772Z,71.55
2022-11-04T13:46:32.101Z,70.43
2022-11-04T13:49:06.221Z,69.33
2022-11-04T13:51:40.975Z,70.50
2022-11-04T13:54:25.663Z,72.36
2022-11-04T13:57:06.837Z,74.72
2022-11-04T13:59:37.015Z,70.43
2022-11-04T14:02:27.475Z,74.23
2022-11-04T14:04:56.304Z,71.01
2022-11-04T14:08:05.443Z,72.68
2022-11-04T14:11:01.559Z,77.39
2022-11-04T14:14:05.857Z,76.26
2022-11-04T14:16:57.136Z,77.70
2022-11-04T14:19:57.862Z,74.87
2022-11-04T14:22:38.914Z,80.51
2022-11-04T14:25:23.294Z,73.42
2022-11-04T14:27:54.760Z,74.85
2022-11-04T14:30:49.764Z,77.16
2022-11-04T14:33:39.328Z,77.73
2022-11-04T14:36:34.659Z,77.74
2022-11-04T14:39:21.021Z,77.27
2022-11-04T14:41:57.280Z,79.29
2022-11-04T14:44:32.411Z,70.78
2022-11-04T14:47:07.625Z,73.11
2022-11-04T14:49:44.038Z,72.94
2022-11-04T14:52:20.614Z,75.78
2022-11-04T14:54:49.248Z,75.83
2022-11-04T14:57:19.971Z,75.84
2022-11-04T14:59:52.161Z,81.54
2022-11-04T15:02:23.656Z,80.96
2022-11-04T15:05:00.119Z,83.54
2022-11-04T15:07:35.048Z,84.65
2022-11-04T15:10:18.745Z,85.11
2022-11-04T15:12:54.716Z,81.59
2022-11-04T15:15:34.197Z,84.21
2022-11-04T15:18:07.824Z,88.13
2022-11-04T15:20:41.298Z,88.07
2022-11-04T15:23:16.485Z,86.58
2022-11-04T15:25:49.480Z,85.78
2022-11-04T15:28:28.381Z,83.08
2022-11-04T15:31:05.363Z,80.83
2022-11-04T15:33:41.238Z,80.52
2022-11-04T15:36:19.015Z,79.99
2022-11-04T15:38:53.054Z,77.92
2022-11-04T15:41:41.561Z,85.20
2022-11-04T15:44:21.338Z,82.33
2022-11-04T15:46:53.545Z,87.17
2022-11-04T15:49:26.190Z,83.28
2022-11-04T15:51:59.555Z,87.08
2022-11-04T15:54:31.001Z,88.51
2022-11-04T15:57:06.796Z,89.68
2022-11-04T15:59:36.602Z,84.77
2022-11-04T16:02:08.757Z,85.27
2022-11-04T16:04:36.925Z,90.91
2022-11-04T16:07:21.604Z,83.79
2022-11-04T16:09:51.532Z,81.24
2022-11-04T16:12:28.170Z,82.59
2022-11-04T16:14:59.311Z,81.58
2022-11-04T16:17:30.670Z,84.86
2022-11-04T16:20:01.565Z,80.02
2022-11-04T16:22:32.140Z,82.81
2022-11-04T16:25:03.474Z,85.38
2022-11-04T16:27:35.230Z,89.04
2022-11-04T16:30:10.572Z,87.59
2022-11-04T16:32:44.952Z,88.98
2022-11-04T16:35:17.569Z,92.48
2022-11-04T16:37:45.724Z,95.78
2022-11-04T16:40:14.424Z,96.59
2022-11-04T16:42:42.706Z,94.25
2022-11-04T16:45:22.521Z,97.81
2022-11-04T16:47:52.595Z,94.26
2022-11-04T16:50:20.863Z,97.04
2022-11-04T16:52:49.071Z,95.51
2022-11-04T16:55:17.981Z,98.51
2022-11-04T16:57:46.644Z,95.51
2022-11-04T17:00:21.111Z,95.87
2022-11-04T17:02:49.658Z,94.47
2022-11-04T17:05:19.967Z,94.89
2022-11-04T17:07:55.277Z,92.78
2022-11-04T17:10:28.605Z,91.60
2022-11-04T17:12:56.680Z,94.30
2022-11-04T17:15:24.698Z,96.25
2022-11-04T17:17:52.978Z,96.11
2022-11-04T17:20:22.743Z,93.64
2022-11-04T17:22:50.964Z,92.05
2022-11-04T17:25:21.628Z,98.35
2022-11-04T17:27:49.934Z,98.17
2022-11-04T17:30:18.654Z,100.00
2022-11-04T17:32:47.495Z,99.34
2022-11-04T17:35:16.659Z,97.80
2022-11-04T17:37:46.816Z,100.00
2022-11-04T17:40:38.453Z,100.00
2022-11-04T17:43:32.462Z,100.00
2022-11-04T17:46:31.366Z,100.00
2022-11-04T17:49:02.812Z,98.99
2022-11-04T17:51:31.577Z,100.00
2022-11-04T17:54:01.045Z,100.00
2022-11-04T17:56:29.501Z,100.00
2022-11-04T17:58:59.899Z,100.00
2022-11-04T18:01:28.742Z,100.00
2022-11-04T18:03:58.048Z,100.00
2022-11-04T18:06:27.212Z,100.00
2022-11-04T18:08:56.330Z,100.00
2022-11-04T18:11:45.578Z,100.00
2022-11-04T18:14:16.964Z,100.00
2022-11-04T18:16:47.516Z,100.00
2022-11-04T18:19:18.928Z,100.00
2022-11-04T18:21:47.696Z,100.00
2022-11-04T18:24:20.724Z,100.00
2022-11-04T18:26:50.891Z,100.00
2022-11-04T18:29:19.187Z,100.00
2022-11-04T18:31:49.401Z,100.00
2022-11-04T18:34:20.472Z,100.00
2022-11-04T18:36:50.240Z,100.00
2022-11-04T18:39:19.385Z,100.00
2022-11-04T18:41:47.861Z,100.00
2022-11-04T18:44:20.222Z,100.00
2022-11-04T18:46:49.150Z,100.00
2022-11-04T18:49:17.555Z,100.00
2022-11-04T18:51:45.933Z,100.00
2022-11-04T18:54:15.173Z,100.00
2022-11-04T18:56:44.011Z,100.00
2022-11-04T18:59:13.941Z,100.00
2022-11-04T19:01:45.547Z,100.00
2022-11-04T19:04:14.358Z,100.00
2022-11-04T19:06:44.800Z,100.00
2022-11-04T19:12:20.992Z,100.00
2022-11-04T19:14:49.264Z,100.00
2022-11-04T19:17:19.015Z,100.00
2022-11-04T19:19:47.503Z,100.00
2022-11-04T19:22:15.872Z,100.00
2022-11-04T19:24:43.927Z,100.00
2022-11-04T19:27:12.020Z,100.00
2022-11-04T19:29:40.111Z,100.00
2022-11-04T19:32:13.731Z,100.00
2022-11-04T19:34:43.984Z,100.00
2022-11-04T19:37:12.934Z,100.00
2022-11-04T19:39:41.310Z,100.00
2022-11-04T19:42:28.383Z,100.00
2022-11-04T19:44:56.714Z,100.00
2022-11-04T19:47:25.135Z,100.00
2022-11-04T19:49:55.516Z,100.00
2022-11-04T19:52:33.352Z,100.00
2022-11-04T19:55:02.207Z,100.00
2022-11-04T19:57:31.219Z,100.00
2022-11-04T19:59:59.515Z,100.00
2022-11-04T20:02:28.028Z,100.00
2022-11-04T20:04:57.576Z,100.00
2022-11-04T20:07:25.787Z,100.00
2022-11-04T20:09:54.660Z,100.00
2022-11-04T20:12:40.188Z,100.00
2022-11-04T20:15:10.791Z,100.00
2022-11-04T20:17:38.999Z,100.00
2022-11-04T20:20:09.224Z,100.00
2022-11-04T20:22:37.498Z,100.00
2022-11-04T20:25:06.209Z,100.00
2022-11-04T20:27:34.359Z,100.00
2022-11-04T20:30:02.856Z,100.00
2022-11-04T20:32:30.959Z,100.00
2022-11-04T20:34:59.667Z,100.00
2022-11-04T20:37:29.210Z,100.00
2022-11-04T20:39:57.413Z,100.00
2022-11-04T20:42:26.296Z,100.00
2022-11-04T20:44:54.860Z,100.00
2022-11-04T20:47:22.960Z,100.00
2022-11-04T20:49:52.303Z,100.00
2022-11-04T20:52:20.559Z,100.00
2022-11-04T20:54:50.029Z,100.00
2022-11-04T20:57:19.186Z,100.00
2022-11-04T20:59:47.446Z,100.00
2022-11-04T21:02:15.762Z,100.00
2022-11-04T21:04:43.979Z,100.00
2022-11-04T21:07:12.164Z,100.00
2022-11-04T21:09:41.004Z,100.00
2022-11-04T21:12:10.914Z,100.00
2022-11-04T21:14:39.295Z,100.00
2022-11-04T21:17:07.407Z,100.00
2022-11-04T21:19:35.540Z,100.00
2022-11-04T21:22:03.873Z,100.00
2022-11-04T21:24:39.026Z,100.00
2022-11-04T21:27:07.603Z,100.00
2022-11-04T21:29:37.798Z,100.00
2022-11-04T21:32:06.815Z,100.00
2022-11-04T21:34:34.931Z,100.00
2022-11-04T21:37:04.510Z,100.00
2022-11-04T21:39:32.683Z,100.00
2022-11-04T21:42:01.460Z,100.00
2022-11-04T21:44:30.347Z,100.00
2022-11-04T21:47:01.149Z,100.00
2022-11-04T21:49:29.250Z,100.00
2022-11-04T21:52:01.710Z,100.00
2022-11-04T21:54:30.430Z,100.00
2022-11-04T21:56:58.502Z,100.00
2022-11-04T21:59:26.680Z,100.00
2022-11-04T22:01:55.545Z,100.00
2022-11-04T22:04:25.069Z,100.00
2022-11-04T22:06:53.125Z,100.00
2022-11-04T22:09:21.301Z,100.00
2022-11-04T22:11:49.633Z,100.00
2022-11-04T22:14:17.647Z,100.00
2022-11-04T22:16:45.781Z,100.00
2022-11-04T22:19:14.511Z,100.00
2022-11-04T22:21:46.163Z,100.00
2022-11-04T22:24:15.892Z,100.00
2022-11-04T22:26:44.301Z,100.00
2022-11-04T22:29:12.449Z,100.00
2022-11-04T22:31:42.859Z,100.00
2022-11-04T22:34:11.019Z,100.00
2022-11-04T22:36:39.746Z,100.00
2022-11-04T22:39:16.102Z,100.00
2022-11-04T22:41:46.268Z,100.00
2022-11-04T22:44:14.999Z,100.00
2022-11-04T22:46:43.535Z,100.00
2022-11-04T22:49:11.580Z,100.00
2022-11-04T22:51:40.699Z,100.00
2022-11-04T22:54:11.796Z,100.00
2022-11-04T22:56:39.775Z,100.00
2022-11-04T22:59:08.017Z,100.00
2022-11-04T23:01:36.766Z,100.00
2022-11-04T23:04:05.637Z,100.00
2022-11-04T23:06:33.745Z,100.00
2022-11-04T23:09:03.821Z,100.00
2022-11-04T23:11:51.604Z,100.00
2022-11-04T23:14:39.766Z,100.00
2022-11-04T23:17:33.268Z,100.00
2022-11-04T23:20:01.901Z,100.00
2022-11-04T23:22:47.530Z,100.00
2022-11-04T23:25:16.003Z,100.00
2022-11-04T23:28:06.038Z,100.00
2022-11-04T23:30:36.166Z,100.00
2022-11-04T23:33:06.642Z,100.00
2022-11-04T23:35:55.017Z,100.00
2022-11-04T23:38:24.089Z,100.00
2022-11-04T23:41:12.546Z,100.00
2022-11-04T23:43:42.051Z,100.00
2022-11-04T23:46:27.786Z,100.00
2022-11-04T23:49:21.704Z,100.00
2022-11-04T23:52:07.392Z,100.00
2022-11-04T23:54:52.771Z,100.00
2022-11-04T23:57:38.248Z,100.00
